createdAt,value
2022-12-23T00:01:00.767Z,88.78
2022-12-23T00:03:28.781Z,88.75
2022-12-23T00:05:55.625Z,88.50
2022-12-23T00:08:22.942Z,88.99
2022-12-23T00:10:51.110Z,88.32
2022-12-23T00:13:36.336Z,88.83
2022-12-23T00:16:09.701Z,89.28
2022-12-23T00:18:36.553Z,89.14
2022-12-23T00:21:10.439Z,88.98
2022-12-23T00:23:39.345Z,88.84
2022-12-23T00:26:06.776Z,89.52
2022-12-23T00:28:33.762Z,89.57
2022-12-23T00:31:06.059Z,89.08
2022-12-23T00:33:38.065Z,89.34
2022-12-23T00:36:19.163Z,89.45
2022-12-23T00:39:04.775Z,89.57
2022-12-23T00:41:49.729Z,89.03
2022-12-23T00:44:16.193Z,89.21
2022-12-23T00:46:42.756Z,89.61
2022-12-23T00:49:30.917Z,89.16
2022-12-23T00:51:57.578Z,89.11
2022-12-23T00:54:24.194Z,88.98
2022-12-23T00:56:50.582Z,89.54
2022-12-23T00:59:18.195Z,89.24
2022-12-23T01:02:03.487Z,89.61
2022-12-23T01:04:48.872Z,89.31
2022-12-23T01:07:15.442Z,88.79
2022-12-23T01:09:41.914Z,88.65
2022-12-23T01:12:08.491Z,89.08
2022-12-23T01:14:35.351Z,88.86
2022-12-23T01:17:01.891Z,88.58
2022-12-23T01:19:28.789Z,88.47
2022-12-23T01:21:55.261Z,89.15
2022-12-23T01:24:22.239Z,89.11
2022-12-23T01:26:48.766Z,89.05
2022-12-23T01:29:15.197Z,88.71
2022-12-23T01:31:41.706Z,88.72
2022-12-23T01:34:08.194Z,88.53
2022-12-23T01:36:34.587Z,88.62
2022-12-23T01:39:01.029Z,88.60
2022-12-23T01:41:49.063Z,88.69
2022-12-23T01:44:46.335Z,88.85
2022-12-23T01:47:28.880Z,88.26
2022-12-23T01:50:06.147Z,88.49
2022-12-23T01:52:40.032Z,88.44
2022-12-23T01:55:07.399Z,88.68
2022-12-23T01:57:35.971Z,88.03
2022-12-23T02:00:23.255Z,87.97
2022-12-23T02:03:10.448Z,87.81
2022-12-23T02:05:37.989Z,88.22
2022-12-23T02:08:23.140Z,88.26
2022-12-23T02:11:25.379Z,88.25
2022-12-23T02:14:35.763Z,88.00
2022-12-23T02:17:15.669Z,87.98
2022-12-23T02:20:02.521Z,88.32
2022-12-23T02:23:16.549Z,88.51
2022-12-23T02:25:59.280Z,88.03
2022-12-23T02:29:02.795Z,88.15
2022-12-23T02:31:45.401Z,88.46
2022-12-23T02:34:16.981Z,88.04
2022-12-23T02:37:01.762Z,88.42
2022-12-23T02:39:53.696Z,88.05
2022-12-23T02:42:34.475Z,88.47
2022-12-23T02:45:23.228Z,88.91
2022-12-23T02:47:59.985Z,88.45
2022-12-23T02:50:36.565Z,88.31
2022-12-23T02:53:28.630Z,88.77
2022-12-23T02:55:57.040Z,88.59
2022-12-23T02:58:31.401Z,88.13
2022-12-23T03:00:59.808Z,88.08
2022-12-23T03:03:26.821Z,87.66
2022-12-23T03:05:55.073Z,87.91
2022-12-23T03:08:32.331Z,88.19
2022-12-23T03:11:08.328Z,87.88
2022-12-23T03:14:05.080Z,87.76
2022-12-23T03:16:48.252Z,87.56
2022-12-23T03:19:32.350Z,87.54
2022-12-23T03:22:10.550Z,87.57
2022-12-23T03:24:41.052Z,87.39
2022-12-23T03:27:18.615Z,87.89
2022-12-23T03:29:55.415Z,87.59
2022-12-23T03:32:23.287Z,87.31
2022-12-23T03:34:55.406Z,87.14
2022-12-23T03:37:26.881Z,87.30
2022-12-23T03:40:01.396Z,87.39
2022-12-23T03:42:33.585Z,87.39
2022-12-23T03:45:37.009Z,87.46
2022-12-23T03:47:59.207Z,87.29
2022-12-23T03:50:26.169Z,87.30
2022-12-23T03:53:04.939Z,87.29
2022-12-23T03:55:38.562Z,86.91
2022-12-23T03:58:28.677Z,87.40
2022-12-23T04:01:34.944Z,87.25
2022-12-23T04:04:10.771Z,86.85
2022-12-23T04:06:48.379Z,87.03
2022-12-23T04:09:21.777Z,87.04
2022-12-23T04:11:49.391Z,87.34
2022-12-23T04:14:20.417Z,86.79
2022-12-23T04:16:48.366Z,87.31
2022-12-23T04:19:15.332Z,86.94
2022-12-23T04:21:41.716Z,86.88
2022-12-23T04:24:08.427Z,86.71
2022-12-23T04:26:34.808Z,86.85
2022-12-23T04:29:01.209Z,86.86
2022-12-23T04:31:27.607Z,87.10
2022-12-23T04:33:54.052Z,86.81
2022-12-23T04:36:20.437Z,86.81
2022-12-23T04:38:46.871Z,86.67
2022-12-23T04:41:13.374Z,87.20
2022-12-23T04:43:39.835Z,87.29
2022-12-23T04:46:06.363Z,87.13
2022-12-23T04:48:32.874Z,87.01
2022-12-23T04:51:02.828Z,86.67
2022-12-23T04:53:29.243Z,87.01
2022-12-23T04:55:55.800Z,87.02
2022-12-23T04:58:24.064Z,86.70
2022-12-23T05:01:01.102Z,86.74
2022-12-23T05:03:27.674Z,87.13
2022-12-23T05:05:54.113Z,86.85
2022-12-23T05:08:20.620Z,86.87
2022-12-23T05:10:47.005Z,86.79
2022-12-23T05:13:13.481Z,86.67
2022-12-23T05:15:39.982Z,87.05
2022-12-23T05:18:06.380Z,86.93
2022-12-23T05:20:32.768Z,87.07
2022-12-23T05:22:59.192Z,87.00
2022-12-23T05:25:25.625Z,87.05
2022-12-23T05:27:52.027Z,86.67
2022-12-23T05:30:18.517Z,86.74
2022-12-23T05:32:46.010Z,86.81
2022-12-23T05:35:12.418Z,86.81
2022-12-23T05:37:38.788Z,86.97
2022-12-23T05:40:05.656Z,86.75
2022-12-23T05:42:32.261Z,86.78
2022-12-23T05:44:58.656Z,87.31
2022-12-23T05:47:25.069Z,86.93
2022-12-23T05:49:51.524Z,86.71
2022-12-23T05:52:17.872Z,86.49
2022-12-23T05:54:44.343Z,86.60
2022-12-23T05:57:10.786Z,86.52
2022-12-23T05:59:37.211Z,86.65
2022-12-23T06:02:04.088Z,86.96
2022-12-23T06:04:30.711Z,86.62
2022-12-23T06:06:57.184Z,86.76
2022-12-23T06:09:23.629Z,86.78
2022-12-23T06:11:50.124Z,87.04
2022-12-23T06:14:16.519Z,87.00
2022-12-23T06:16:42.972Z,86.94
2022-12-23T06:19:09.519Z,86.80
2022-12-23T06:21:35.972Z,86.87
2022-12-23T06:24:02.422Z,87.16
2022-12-23T06:26:28.814Z,86.42
2022-12-23T06:28:55.220Z,86.63
2022-12-23T06:31:21.612Z,86.94
2022-12-23T06:33:48.098Z,86.96
2022-12-23T06:36:14.535Z,86.95
2022-12-23T06:38:40.986Z,87.13
2022-12-23T06:41:07.856Z,86.72
2022-12-23T06:43:34.246Z,87.04
2022-12-23T06:46:00.760Z,87.19
2022-12-23T06:48:27.229Z,86.75
2022-12-23T06:50:53.590Z,86.39
2022-12-23T06:53:20.015Z,86.50
2022-12-23T06:55:46.448Z,86.58
2022-12-23T06:58:12.853Z,87.03
2022-12-23T07:00:39.345Z,86.79
2022-12-23T07:03:05.903Z,86.73
2022-12-23T07:05:37.327Z,86.56
2022-12-23T07:08:04.768Z,86.96
2022-12-23T07:10:31.184Z,86.91
2022-12-23T07:12:57.623Z,86.62
2022-12-23T07:15:24.085Z,87.08
2022-12-23T07:17:50.539Z,87.31
2022-12-23T07:20:16.984Z,87.05
2022-12-23T07:22:43.469Z,87.48
2022-12-23T07:25:09.979Z,87.25
2022-12-23T07:27:36.379Z,86.59
2022-12-23T07:30:03.129Z,87.12
2022-12-23T07:32:29.559Z,87.29
2022-12-23T07:34:56.019Z,86.79
2022-12-23T07:37:22.479Z,86.77
2022-12-23T07:39:48.895Z,87.11
2022-12-23T07:45:01.831Z,87.24
2022-12-23T07:47:28.194Z,87.19
2022-12-23T07:49:54.559Z,86.87
2022-12-23T07:52:20.999Z,87.25
2022-12-23T07:54:47.450Z,86.83
2022-12-23T07:57:13.842Z,87.06
2022-12-23T07:59:40.223Z,86.93
2022-12-23T08:02:06.788Z,86.87
2022-12-23T08:04:33.379Z,86.81
2022-12-23T08:06:59.812Z,86.97
2022-12-23T08:09:26.242Z,86.79
2022-12-23T08:11:52.689Z,86.86
2022-12-23T08:14:19.623Z,86.42
2022-12-23T08:16:47.873Z,86.88
2022-12-23T08:19:14.307Z,86.79
2022-12-23T08:21:40.696Z,86.68
2022-12-23T08:24:07.123Z,86.74
2022-12-23T08:26:33.714Z,86.85
2022-12-23T08:29:00.498Z,86.69
2022-12-23T08:31:30.008Z,86.81
2022-12-23T08:33:57.640Z,86.54
2022-12-23T08:36:26.640Z,86.79
2022-12-23T08:38:54.861Z,86.91
2022-12-23T08:41:25.084Z,87.25
2022-12-23T08:43:51.602Z,87.08
2022-12-23T08:46:18.888Z,86.94
2022-12-23T08:48:49.410Z,86.95
2022-12-23T08:51:18.126Z,86.53
2022-12-23T08:53:44.778Z,86.90
2022-12-23T08:56:16.905Z,87.15
2022-12-23T08:58:45.868Z,87.51
2022-12-23T09:01:14.757Z,86.72
2022-12-23T09:03:42.584Z,87.06
2022-12-23T09:06:14.486Z,87.12
2022-12-23T09:08:41.291Z,87.35
2022-12-23T09:11:12.778Z,87.14
2022-12-23T09:13:39.524Z,87.45
2022-12-23T09:16:07.459Z,87.65
2022-12-23T09:18:34.997Z,87.58
2022-12-23T09:21:04.735Z,87.48
2022-12-23T09:23:31.498Z,87.66
2022-12-23T09:25:58.327Z,87.45
2022-12-23T09:28:25.214Z,87.60
2022-12-23T09:30:52.061Z,87.03
2022-12-23T09:33:19.721Z,87.08
2022-12-23T09:35:46.295Z,87.17
2022-12-23T09:38:12.928Z,87.56
2022-12-23T09:40:41.630Z,87.38
2022-12-23T09:43:32.350Z,87.74
2022-12-23T09:46:17.408Z,87.57
2022-12-23T09:48:56.285Z,87.77
2022-12-23T09:51:23.806Z,87.67
2022-12-23T09:54:17.215Z,87.51
2022-12-23T09:57:15.258Z,87.54
2022-12-23T10:00:01.777Z,88.22
2022-12-23T10:02:50.713Z,87.77
2022-12-23T10:05:39.389Z,88.12
2022-12-23T10:08:33.226Z,87.65
2022-12-23T10:11:10.656Z,88.32
2022-12-23T10:13:45.132Z,87.94
2022-12-23T10:16:16.467Z,87.95
2022-12-23T10:19:06.810Z,88.24
2022-12-23T10:21:48.328Z,88.01
2022-12-23T10:24:26.537Z,88.01
2022-12-23T10:26:56.207Z,88.18
2022-12-23T10:29:30.054Z,88.02
2022-12-23T10:32:19.891Z,87.92
2022-12-23T10:34:51.525Z,88.64
2022-12-23T10:37:24.949Z,88.63
2022-12-23T10:40:25.442Z,88.62
2022-12-23T10:43:34.894Z,88.53
2022-12-23T10:46:50.537Z,88.27
2022-12-23T10:49:38.156Z,88.09
2022-12-23T10:52:17.410Z,88.17
2022-12-23T10:54:46.465Z,88.35
2022-12-23T10:57:15.513Z,88.59
2022-12-23T10:59:41.973Z,88.13
2022-12-23T11:02:14.431Z,88.31
2022-12-23T11:04:44.181Z,88.45
2022-12-23T11:10:06.772Z,88.25
2022-12-23T11:12:42.651Z,87.92
2022-12-23T11:15:36.916Z,88.22
2022-12-23T11:18:03.300Z,88.33
2022-12-23T11:20:30.811Z,88.26
2022-12-23T11:23:01.783Z,88.48
2022-12-23T11:25:37.781Z,88.26
2022-12-23T11:28:10.352Z,88.11
2022-12-23T11:30:55.106Z,88.34
2022-12-23T11:33:29.029Z,87.83
2022-12-23T11:36:23.909Z,88.10
2022-12-23T11:39:10.620Z,88.67
2022-12-23T11:41:42.619Z,87.91
2022-12-23T11:44:25.980Z,88.36
2022-12-23T11:46:52.732Z,88.08
2022-12-23T11:49:25.277Z,88.56
2022-12-23T11:52:14.849Z,88.83
2022-12-23T11:54:41.534Z,88.56
2022-12-23T11:57:17.687Z,88.23
2022-12-23T11:59:49.772Z,90.48
2022-12-23T12:02:32.545Z,89.15
2022-12-23T12:05:02.507Z,88.39
2022-12-23T12:07:30.540Z,88.25
2022-12-23T12:09:59.799Z,88.39
2022-12-23T12:12:28.733Z,88.98
2022-12-23T12:14:57.923Z,88.33
2022-12-23T12:17:32.959Z,87.83
2022-12-23T12:20:21.707Z,88.02
2022-12-23T12:23:11.381Z,87.98
2022-12-23T12:25:50.519Z,88.19
2022-12-23T12:28:31.094Z,88.18
2022-12-23T12:31:16.899Z,88.01
2022-12-23T12:33:57.737Z,88.08
2022-12-23T12:36:44.401Z,89.01
2022-12-23T12:39:21.357Z,88.73
2022-12-23T12:42:01.721Z,88.55
2022-12-23T12:44:44.755Z,88.12
2022-12-23T12:47:53.310Z,87.94
2022-12-23T12:50:29.611Z,87.88
2022-12-23T12:53:02.454Z,87.85
2022-12-23T12:55:35.579Z,88.43
2022-12-23T12:58:04.602Z,88.60
2022-12-23T13:00:45.983Z,88.51
2022-12-23T13:03:52.362Z,88.29
2022-12-23T13:06:47.878Z,88.33
2022-12-23T13:09:29.765Z,88.57
2022-12-23T13:12:17.338Z,88.33
2022-12-23T13:14:51.924Z,88.45
2022-12-23T13:17:29.666Z,88.27
2022-12-23T13:20:31.331Z,88.50
2022-12-23T13:23:34.274Z,88.32
2022-12-23T13:26:01.521Z,88.56
2022-12-23T13:28:27.851Z,88.95
2022-12-23T13:31:08.176Z,88.83
2022-12-23T13:33:37.512Z,89.13
2022-12-23T13:36:28.967Z,88.59
2022-12-23T13:39:30.616Z,88.95
2022-12-23T13:42:05.171Z,89.00
2022-12-23T13:44:34.471Z,88.53
2022-12-23T13:47:13.980Z,89.09
2022-12-23T13:49:40.411Z,88.91
2022-12-23T13:52:21.439Z,88.82
2022-12-23T13:55:08.488Z,88.62
2022-12-23T13:58:03.190Z,88.63
2022-12-23T14:00:32.548Z,88.90
2022-12-23T14:03:02.073Z,89.46
2022-12-23T14:05:31.291Z,88.96
2022-12-23T14:08:22.890Z,89.01
2022-12-23T14:11:03.569Z,89.40
2022-12-23T14:13:55.072Z,88.86
2022-12-23T14:16:42.580Z,89.49
2022-12-23T14:19:25.964Z,89.60
2022-12-23T14:22:14.195Z,89.36
2022-12-23T14:25:17.227Z,88.85
2022-12-23T14:28:08.582Z,89.29
2022-12-23T14:30:41.219Z,89.27
2022-12-23T14:33:27.535Z,89.12
2022-12-23T14:35:58.245Z,89.00
2022-12-23T14:38:28.031Z,89.31
2022-12-23T14:40:58.842Z,89.64
2022-12-23T14:43:31.526Z,89.28
2022-12-23T14:45:59.332Z,89.54
2022-12-23T14:48:47.726Z,89.28
2022-12-23T14:51:14.081Z,90.00
2022-12-23T14:53:52.569Z,89.62
2022-12-23T14:56:18.957Z,89.61
2022-12-23T14:58:52.333Z,89.64
2022-12-23T15:01:37.931Z,89.69
2022-12-23T15:04:15.877Z,90.03
2022-12-23T15:06:48.441Z,89.80
2022-12-23T15:09:47.240Z,89.78
2022-12-23T15:12:27.298Z,89.59
2022-12-23T15:14:59.073Z,89.80
2022-12-23T15:17:35.034Z,89.51
2022-12-23T15:20:10.789Z,89.47
2022-12-23T15:22:38.479Z,89.31
2022-12-23T15:25:22.866Z,89.33
2022-12-23T15:27:50.387Z,89.34
2022-12-23T15:30:28.678Z,89.86
2022-12-23T15:33:27.961Z,89.54
2022-12-23T15:35:53.904Z,89.04
2022-12-23T15:38:22.890Z,89.88
2022-12-23T15:41:15.756Z,89.56
2022-12-23T15:43:43.579Z,89.26
2022-12-23T15:46:17.218Z,89.25
2022-12-23T15:48:44.365Z,89.25
2022-12-23T15:51:42.707Z,89.26
2022-12-23T15:54:08.418Z,89.35
2022-12-23T15:56:38.700Z,88.77
2022-12-23T15:59:05.668Z,89.25
2022-12-23T16:01:40.940Z,89.17
2022-12-23T16:04:08.886Z,89.56
2022-12-23T16:06:36.509Z,89.07
2022-12-23T16:09:33.242Z,89.73
2022-12-23T16:12:19.438Z,89.32
2022-12-23T16:14:57.674Z,89.46
2022-12-23T16:17:32.191Z,89.34
2022-12-23T16:20:25.113Z,88.62
2022-12-23T16:22:54.081Z,89.08
2022-12-23T16:25:26.460Z,89.63
2022-12-23T16:27:59.135Z,89.40
2022-12-23T16:30:31.620Z,89.19
2022-12-23T16:33:03.181Z,89.54
2022-12-23T16:35:38.378Z,89.50
2022-12-23T16:38:16.995Z,88.94
2022-12-23T16:40:48.646Z,88.73
2022-12-23T16:43:15.783Z,89.05
2022-12-23T16:45:44.117Z,89.11
2022-12-23T16:48:19.955Z,88.84
2022-12-23T16:50:46.830Z,89.13
2022-12-23T16:53:13.673Z,88.80
2022-12-23T16:55:46.214Z,88.59
2022-12-23T16:58:16.784Z,88.67
2022-12-23T17:00:43.194Z,88.58
2022-12-23T17:03:15.652Z,89.22
2022-12-23T17:05:42.077Z,89.46
2022-12-23T17:08:09.924Z,88.78
2022-12-23T17:10:37.900Z,89.30
2022-12-23T17:13:04.799Z,88.73
2022-12-23T17:15:31.322Z,89.06
2022-12-23T17:17:57.789Z,88.55
2022-12-23T17:20:24.493Z,89.34
2022-12-23T17:22:59.063Z,88.76
2022-12-23T17:25:26.695Z,88.92
2022-12-23T17:27:53.627Z,88.89
2022-12-23T17:30:23.388Z,89.10
2022-12-23T17:32:56.965Z,88.79
2022-12-23T17:35:25.140Z,89.18
2022-12-23T17:37:51.844Z,88.53
2022-12-23T17:40:18.636Z,89.05
2022-12-23T17:42:45.890Z,88.89
2022-12-23T17:45:27.615Z,89.07
2022-12-23T17:47:54.644Z,89.62
2022-12-23T17:50:21.350Z,88.70
2022-12-23T17:52:47.984Z,89.21
2022-12-23T17:55:19.415Z,88.85
2022-12-23T17:57:45.792Z,89.45
2022-12-23T18:00:13.215Z,88.90
2022-12-23T18:02:40.625Z,89.08
2022-12-23T18:05:29.576Z,89.21
2022-12-23T18:08:00.858Z,88.73
2022-12-23T18:10:30.713Z,88.92
2022-12-23T18:13:01.089Z,89.45
2022-12-23T18:15:39.546Z,89.32
2022-12-23T18:18:24.612Z,89.27
2022-12-23T18:20:56.052Z,89.00
2022-12-23T18:23:31.880Z,89.68
2022-12-23T18:25:59.211Z,89.58
2022-12-23T18:28:26.587Z,89.56
2022-12-23T18:30:55.679Z,89.12
2022-12-23T18:33:24.042Z,89.45
2022-12-23T18:35:50.966Z,89.65
2022-12-23T18:38:18.412Z,89.67
2022-12-23T18:40:45.196Z,89.96
2022-12-23T18:43:20.301Z,89.68
2022-12-23T18:45:52.477Z,90.00
2022-12-23T18:48:19.860Z,89.97
2022-12-23T18:50:46.724Z,90.38
2022-12-23T18:53:24.752Z,90.05
2022-12-23T18:55:53.349Z,90.56
2022-12-23T18:58:20.709Z,90.90
2022-12-23T19:00:48.521Z,90.27
2022-12-23T19:03:29.418Z,90.55
2022-12-23T19:05:57.264Z,91.06
2022-12-23T19:08:27.207Z,90.62
2022-12-23T19:10:55.414Z,90.67
2022-12-23T19:13:22.397Z,90.90
2022-12-23T19:15:49.090Z,90.90
2022-12-23T19:18:19.332Z,90.81
2022-12-23T19:20:47.015Z,90.54
2022-12-23T19:23:13.969Z,91.06
2022-12-23T19:25:50.739Z,90.57
2022-12-23T19:28:20.942Z,90.65
2022-12-23T19:30:47.443Z,90.85
2022-12-23T19:33:13.917Z,91.03
2022-12-23T19:35:43.901Z,90.69
2022-12-23T19:38:10.676Z,90.86
2022-12-23T19:40:37.135Z,90.92
2022-12-23T19:43:04.058Z,90.84
2022-12-23T19:45:30.733Z,90.38
2022-12-23T19:47:57.125Z,90.60
2022-12-23T19:50:23.685Z,90.50
2022-12-23T19:52:50.629Z,90.57
2022-12-23T19:55:17.237Z,90.75
2022-12-23T19:57:43.895Z,90.50
2022-12-23T20:00:10.877Z,90.83
2022-12-23T20:02:41.387Z,90.96
2022-12-23T20:05:09.624Z,91.15
2022-12-23T20:07:36.437Z,91.00
2022-12-23T20:10:04.315Z,91.43
2022-12-23T20:12:30.739Z,91.27
2022-12-23T20:14:58.219Z,91.04
2022-12-23T20:17:24.576Z,91.15
2022-12-23T20:19:50.976Z,90.97
2022-12-23T20:22:17.706Z,91.30
2022-12-23T20:24:44.139Z,91.11
2022-12-23T20:27:12.511Z,91.08
2022-12-23T20:29:40.364Z,91.67
2022-12-23T20:32:06.856Z,91.62
2022-12-23T20:34:38.646Z,91.28
2022-12-23T20:37:06.932Z,91.83
2022-12-23T20:39:33.624Z,91.50
2022-12-23T20:42:00.035Z,91.74
2022-12-23T20:44:35.758Z,91.89
2022-12-23T20:47:03.551Z,91.76
2022-12-23T20:49:30.133Z,92.13
2022-12-23T20:51:56.692Z,92.13
2022-12-23T20:54:29.780Z,92.43
2022-12-23T20:56:58.932Z,92.20
2022-12-23T20:59:25.375Z,92.13
2022-12-23T21:01:52.216Z,91.72
2022-12-23T21:04:19.229Z,91.48
2022-12-23T21:06:45.773Z,91.98
2022-12-23T21:09:14.838Z,91.96
2022-12-23T21:11:44.790Z,91.71
2022-12-23T21:14:12.738Z,91.88
2022-12-23T21:16:40.027Z,92.39
2022-12-23T21:19:09.010Z,91.86
2022-12-23T21:21:35.629Z,91.71
2022-12-23T21:24:04.268Z,91.77
2022-12-23T21:26:32.592Z,91.23
2022-12-23T21:29:00.543Z,91.38
2022-12-23T21:31:29.157Z,91.36
2022-12-23T21:33:55.684Z,91.30
2022-12-23T21:36:25.261Z,91.37
2022-12-23T21:38:51.771Z,91.39
2022-12-23T21:41:27.517Z,91.67
2022-12-23T21:43:56.411Z,91.82
2022-12-23T21:46:24.210Z,91.23
2022-12-23T21:48:51.061Z,91.21
2022-12-23T21:51:36.664Z,91.58
2022-12-23T21:54:05.816Z,91.45
2022-12-23T21:56:32.331Z,91.56
2022-12-23T21:59:05.053Z,91.50
2022-12-23T22:01:32.394Z,91.50
2022-12-23T22:03:59.267Z,91.14
2022-12-23T22:06:29.258Z,91.55
2022-12-23T22:08:56.857Z,91.79
2022-12-23T22:11:26.976Z,91.88
2022-12-23T22:13:53.438Z,91.71
2022-12-23T22:16:23.243Z,91.13
2022-12-23T22:18:50.963Z,91.21
2022-12-23T22:21:19.930Z,90.80
2022-12-23T22:23:47.397Z,91.19
2022-12-23T22:26:23.901Z,91.09
2022-12-23T22:28:52.022Z,91.71
2022-12-23T22:31:24.078Z,90.96
2022-12-23T22:33:50.672Z,90.97
2022-12-23T22:36:17.381Z,90.93
2022-12-23T22:38:44.317Z,90.90
2022-12-23T22:41:10.979Z,90.84
2022-12-23T22:43:37.872Z,91.04
2022-12-23T22:46:04.855Z,90.69
2022-12-23T22:48:31.355Z,90.44
2022-12-23T22:51:03.052Z,90.60
2022-12-23T22:53:30.165Z,89.99
2022-12-23T22:56:00.505Z,90.26
2022-12-23T22:58:28.630Z,89.99
2022-12-23T23:00:55.369Z,89.73
2022-12-23T23:03:22.261Z,89.39
2022-12-23T23:05:59.005Z,89.29
2022-12-23T23:08:25.891Z,88.54
2022-12-23T23:10:52.329Z,88.58
2022-12-23T23:13:18.849Z,88.35
2022-12-23T23:15:47.791Z,88.23
2022-12-23T23:18:14.818Z,87.92
2022-12-23T23:20:41.249Z,87.74
2022-12-23T23:23:07.729Z,88.03
2022-12-23T23:25:34.172Z,87.83
2022-12-23T23:28:00.638Z,87.46
2022-12-23T23:30:27.009Z,87.24
2022-12-23T23:32:53.388Z,87.42
2022-12-23T23:35:19.873Z,87.63
2022-12-23T23:37:46.285Z,87.38
2022-12-23T23:40:12.850Z,87.30
2022-12-23T23:42:39.258Z,87.65
2022-12-23T23:45:06.348Z,87.59
2022-12-23T23:47:34.711Z,87.16
2022-12-23T23:50:01.994Z,87.37
2022-12-23T23:52:28.986Z,87.01
2022-12-23T23:54:55.691Z,87.05
2022-12-23T23:57:23.057Z,86.79
2022-12-23T23:59:49.611Z,86.79
